Time,TemperatureF,DewpointF,PressureIn,WindDirection,WindDirectionDegrees,WindSpeedMPH,WindSpeedGustMPH,Humidity,HourlyPrecipIn,Conditions,Clouds,dailyrainin,SoftwareType,DateUTC
2013-02-15 00:01:00,27.0,27.0,30.50,West,270,0.0,0.0,100,0.00,,,0.01,,2013-02-15 08:01:00,
2013-02-15 00:11:00,28.0,28.0,30.50,West,270,0.0,0.0,100,0.00,,,0.01,,2013-02-15 08:11:00,
2013-02-15 00:21:00,28.0,28.0,30.50,West,270,0.0,0.0,100,0.00,,,0.01,,2013-02-15 08:21:00,
2013-02-15 00:31:00,28.0,28.0,30.50,West,270,0.0,0.0,100,0.00,,,0.01,,2013-02-15 08:31:00,
2013-02-15 00:41:00,28.0,28.0,30.50,West,270,0.0,0.0,100,0.00,,,0.01,,2013-02-15 08:41:00,
2013-02-15 00:52:00,29.0,29.0,30.50,West,270,0.0,0.0,100,0.00,,,0.01,,2013-02-15 08:52:00,
2013-02-15 01:01:00,29.0,29.0,30.50,West,270,0.0,0.0,100,0.00,,,0.01,,2013-02-15 09:01:00,
2013-02-15 01:12:00,29.0,29.0,30.50,West,270,0.0,0.0,100,0.00,,,0.01,,2013-02-15 09:12:00,
2013-02-15 01:21:00,27.0,27.0,30.50,West,270,0.0,0.0,100,0.00,,,0.01,,2013-02-15 09:21:00,
2013-02-15 01:31:00,27.0,27.0,30.50,West,270,0.0,0.0,100,0.00,,,0.01,,2013-02-15 09:31:00,
2013-02-15 01:41:00,27.0,27.0,30.50,West,270,0.0,0.0,100,0.00,,,0.01,,2013-02-15 09:41:00,
2013-02-15 01:51:00,27.0,27.0,30.49,West,270,0.0,0.0,100,0.00,,,0.01,,2013-02-15 09:51:00,
2013-02-15 02:01:00,27.0,27.0,30.49,West,270,0.0,0.0,100,0.00,,,0.01,,2013-02-15 10:01:00,
2013-02-15 02:11:00,27.0,27.0,30.49,West,270,0.0,0.0,100,0.00,,,0.01,,2013-02-15 10:11:00,
2013-02-15 02:21:00,27.0,27.0,30.49,West,270,0.0,0.0,100,0.00,,,0.01,,2013-02-15 10:21:00,
2013-02-15 02:31:00,26.0,26.0,30.50,West,270,0.0,0.0,100,0.00,,,0.01,,2013-02-15 10:31:00,
2013-02-15 02:41:00,26.0,26.0,30.50,West,270,0.0,0.0,100,0.00,,,0.01,,2013-02-15 10:41:00,
2013-02-15 02:51:00,25.0,25.0,30.50,West,270,0.0,0.0,100,0.00,,,0.01,,2013-02-15 10:51:00,
2013-02-15 03:01:00,25.0,25.0,30.50,West,270,0.0,0.0,100,0.00,,,0.02,,2013-02-15 11:01:00,
2013-02-15 03:11:00,25.0,25.0,30.50,West,270,0.0,0.0,100,0.00,,,0.02,,2013-02-15 11:11:00,
2013-02-15 03:22:00,26.0,26.0,30.50,West,270,0.0,0.0,100,0.00,,,0.02,,2013-02-15 11:22:00,
2013-02-15 03:31:00,26.0,26.0,30.50,West,270,0.0,0.0,100,0.00,,,0.02,,2013-02-15 11:31:00,
2013-02-15 03:42:00,26.0,26.0,30.50,West,270,0.0,0.0,100,0.00,,,0.02,,2013-02-15 11:42:00,
2013-02-15 03:52:00,26.0,26.0,30.50,West,270,0.0,0.0,100,0.00,,,0.02,,2013-02-15 11:52:00,
2013-02-15 04:01:00,25.0,25.0,30.50,West,270,0.0,0.0,100,0.00,,,0.02,,2013-02-15 12:01:00,
2013-02-15 04:11:00,25.0,25.0,30.50,West,270,0.0,0.0,100,0.00,,,0.02,,2013-02-15 12:11:00,
2013-02-15 04:21:00,26.0,26.0,30.50,ENE,68,0.0,0.0,100,0.00,,,0.02,,2013-02-15 12:21:00,
2013-02-15 04:31:00,26.0,26.0,30.50,ENE,68,0.0,0.0,100,0.00,,,0.02,,2013-02-15 12:31:00,
2013-02-15 04:42:00,26.0,26.0,30.50,ENE,68,0.0,0.0,100,0.00,,,0.02,,2013-02-15 12:42:00,
2013-02-15 04:52:00,26.0,26.0,30.50,ENE,68,0.0,0.0,100,0.00,,,0.02,,2013-02-15 12:52:00,
2013-02-15 05:02:00,26.0,26.0,30.49,ENE,68,0.0,0.0,100,0.00,,,0.02,,2013-02-15 13:02:00,
2013-02-15 05:11:00,25.0,25.0,30.49,ENE,68,0.0,0.0,100,0.00,,,0.02,,2013-02-15 13:11:00,
2013-02-15 05:21:00,25.0,25.0,30.49,ENE,68,0.0,0.0,100,0.00,,,0.02,,2013-02-15 13:21:00,
2013-02-15 05:31:00,24.0,24.0,30.49,ENE,68,0.0,0.0,100,0.00,,,0.02,,2013-02-15 13:31:00,
2013-02-15 05:41:00,24.0,24.0,30.49,ENE,68,0.0,0.0,100,0.00,,,0.02,,2013-02-15 13:41:00,
2013-02-15 05:51:00,25.0,25.0,30.50,ENE,68,0.0,0.0,100,0.00,,,0.02,,2013-02-15 13:51:00,
2013-02-15 06:01:00,25.0,25.0,30.50,ENE,68,0.0,0.0,100,0.00,,,0.02,,2013-02-15 14:01:00,
2013-02-15 06:11:00,25.0,25.0,30.50,ENE,68,0.0,0.0,100,0.00,,,0.02,,2013-02-15 14:11:00,
2013-02-15 06:21:00,26.0,26.0,30.50,ENE,68,0.0,0.0,100,0.00,,,0.02,,2013-02-15 14:21:00,
2013-02-15 06:32:00,26.0,26.0,30.50,East,90,5.0,5.0,100,0.00,,,0.02,,2013-02-15 14:32:00,
2013-02-15 06:41:00,26.0,26.0,30.50,East,90,5.0,5.0,100,0.00,,,0.02,,2013-02-15 14:41:00,
2013-02-15 06:52:00,25.0,25.0,30.49,ENE,68,0.0,0.0,100,0.00,,,0.02,,2013-02-15 14:52:00,
2013-02-15 07:01:00,25.0,25.0,30.50,ENE,68,0.0,0.0,100,0.00,,,0.02,,2013-02-15 15:01:00,
2013-02-15 07:11:00,25.0,25.0,30.50,ENE,68,0.0,0.0,100,0.00,,,0.02,,2013-02-15 15:11:00,
2013-02-15 07:21:00,25.0,25.0,30.50,ENE,68,0.0,0.0,100,0.00,,,0.02,,2013-02-15 15:21:00,
2013-02-15 07:32:00,25.0,25.0,30.50,ENE,68,0.0,0.0,100,0.00,,,0.03,,2013-02-15 15:32:00,
2013-02-15 07:41:00,25.0,25.0,30.50,ENE,68,0.0,0.0,100,0.00,,,0.02,,2013-02-15 15:41:00,
2013-02-15 07:51:00,25.0,25.0,30.50,ENE,68,0.0,0.0,100,0.00,,,0.02,,2013-02-15 15:51:00,
2013-02-15 08:01:00,25.0,25.0,30.50,East,90,2.0,5.0,100,0.00,,,0.02,,2013-02-15 16:01:00,
2013-02-15 08:11:00,25.0,25.0,30.50,East,90,2.0,5.0,100,0.00,,,0.02,,2013-02-15 16:11:00,
2013-02-15 08:21:00,25.0,25.0,30.50,East,90,2.0,3.0,100,0.00,,,0.02,,2013-02-15 16:21:00,
2013-02-15 08:31:00,27.0,27.0,30.50,NE,45,0.0,0.0,100,0.00,,,0.02,,2013-02-15 16:31:00,
2013-02-15 08:42:00,27.0,27.0,30.50,NE,45,0.0,0.0,100,0.00,,,0.02,,2013-02-15 16:42:00,
2013-02-15 08:51:00,28.0,28.0,30.50,NE,45,0.0,0.0,100,0.00,,,0.02,,2013-02-15 16:51:00,
2013-02-15 09:01:00,28.0,28.0,30.50,NE,45,0.0,0.0,100,0.00,,,0.02,,2013-02-15 17:01:00,
2013-02-15 09:11:00,32.0,32.0,30.50,NE,45,0.0,0.0,100,0.00,,,0.02,,2013-02-15 17:11:00,
2013-02-15 09:21:00,32.0,32.0,30.50,NE,45,0.0,0.0,100,0.00,,,0.02,,2013-02-15 17:21:00,
2013-02-15 09:31:00,34.0,34.0,30.50,NE,45,0.0,0.0,100,0.00,,,0.02,,2013-02-15 17:31:00,
2013-02-15 09:41:00,34.0,34.0,30.50,NE,45,0.0,0.0,100,0.00,,,0.02,,2013-02-15 17:41:00,
2013-02-15 09:52:00,35.0,35.0,30.50,NE,45,0.0,0.0,100,0.00,,,0.02,,2013-02-15 17:52:00,
2013-02-15 10:01:00,37.0,37.0,30.50,NE,45,0.0,0.0,100,0.00,,,0.02,,2013-02-15 18:01:00,
2013-02-15 10:11:00,37.0,37.0,30.50,NE,45,0.0,0.0,100,0.00,,,0.02,,2013-02-15 18:11:00,
2013-02-15 10:21:00,36.0,36.0,30.50,NE,45,0.0,0.0,100,0.00,,,0.02,,2013-02-15 18:21:00,
2013-02-15 10:31:00,36.0,36.0,30.50,NE,45,3.0,5.0,100,0.00,,,0.02,,2013-02-15 18:31:00,
2013-02-15 10:41:00,36.0,36.0,30.50,NE,45,3.0,5.0,100,0.00,,,0.02,,2013-02-15 18:41:00,
2013-02-15 10:52:00,36.0,36.0,30.49,ENE,68,0.0,0.0,100,0.00,,,0.02,,2013-02-15 18:52:00,
2013-02-15 11:01:00,36.0,36.0,30.49,ENE,68,0.0,0.0,100,0.00,,,0.02,,2013-02-15 19:01:00,
2013-02-15 11:11:00,36.0,36.0,30.49,ENE,68,0.0,0.0,100,0.00,,,0.02,,2013-02-15 19:11:00,
2013-02-15 11:21:00,37.0,37.0,30.49,ENE,68,0.0,0.0,100,0.00,,,0.02,,2013-02-15 19:21:00,
2013-02-15 11:32:00,37.0,37.0,30.49,ENE,68,0.0,0.0,100,0.00,,,0.02,,2013-02-15 19:32:00,
2013-02-15 11:41:00,37.0,37.0,30.49,ENE,68,0.0,0.0,100,0.00,,,0.02,,2013-02-15 19:41:00,
2013-02-15 11:51:00,37.0,37.0,30.48,NE,45,7.0,9.0,100,0.00,,,0.02,,2013-02-15 19:51:00,
2013-02-15 12:01:00,38.0,38.0,30.48,NE,45,0.0,0.0,100,0.00,,,0.02,,2013-02-15 20:01:00,
2013-02-15 12:11:00,38.0,38.0,30.48,NE,45,0.0,0.0,100,0.00,,,0.02,,2013-02-15 20:11:00,
2013-02-15 12:21:00,39.0,39.0,30.47,NE,45,0.0,0.0,100,0.00,,,0.02,,2013-02-15 20:21:00,
2013-02-15 12:32:00,39.0,39.0,30.47,NE,45,0.0,0.0,100,0.00,,,0.02,,2013-02-15 20:32:00,
2013-02-15 12:42:00,39.0,39.0,30.47,NE,45,0.0,0.0,100,0.00,,,0.02,,2013-02-15 20:42:00,
2013-02-15 12:52:00,40.0,40.0,30.46,NE,45,3.0,5.0,100,0.00,,,0.02,,2013-02-15 20:52:00,
2013-02-15 13:01:00,40.0,40.0,30.45,NE,45,0.0,0.0,100,0.00,,,0.02,,2013-02-15 21:01:00,
2013-02-15 13:11:00,40.0,40.0,30.45,NE,45,0.0,0.0,100,0.00,,,0.02,,2013-02-15 21:11:00,
2013-02-15 13:21:00,41.0,41.0,30.45,NE,45,0.0,0.0,100,0.00,,,0.02,,2013-02-15 21:21:00,
2013-02-15 13:31:00,42.0,42.0,30.44,NE,45,0.0,0.0,100,0.00,,,0.02,,2013-02-15 21:31:00,
2013-02-15 13:42:00,42.0,42.0,30.44,NE,45,0.0,0.0,100,0.00,,,0.02,,2013-02-15 21:42:00,
2013-02-15 13:51:00,42.0,42.0,30.43,NE,45,0.0,0.0,100,0.00,,,0.02,,2013-02-15 21:51:00,
2013-02-15 14:01:00,43.0,43.0,30.42,NE,45,0.0,0.0,100,0.00,,,0.02,,2013-02-15 22:01:00,
2013-02-15 14:11:00,43.0,43.0,30.42,NE,45,0.0,0.0,100,0.00,,,0.02,,2013-02-15 22:11:00,
2013-02-15 14:21:00,43.0,43.0,30.42,NE,45,0.0,0.0,100,0.00,,,0.02,,2013-02-15 22:21:00,
2013-02-15 14:31:00,45.0,45.0,30.42,NE,45,0.0,0.0,100,0.00,,,0.02,,2013-02-15 22:31:00,
2013-02-15 14:41:00,45.0,45.0,30.42,NE,45,0.0,0.0,100,0.00,,,0.02,,2013-02-15 22:41:00,
2013-02-15 14:51:00,47.0,47.0,30.41,NNW,338,0.0,0.0,100,0.00,,,0.02,,2013-02-15 22:51:00,
2013-02-15 15:02:00,44.0,44.0,30.41,North,0,0.0,0.0,100,0.00,,,0.02,,2013-02-15 23:02:00,
2013-02-15 15:21:00,44.0,44.0,30.41,North,0,0.0,0.0,100,0.00,,,0.02,,2013-02-15 23:21:00,
2013-02-15 15:31:00,44.0,44.0,30.40,NNW,338,0.0,0.0,100,0.00,,,0.02,,2013-02-15 23:31:00,
2013-02-15 15:41:00,44.0,44.0,30.40,NNW,338,0.0,0.0,100,0.00,,,0.02,,2013-02-15 23:41:00,
2013-02-15 15:52:00,44.0,44.0,30.39,NW,315,0.0,0.0,100,0.00,,,0.02,,2013-02-15 23:52:00,
2013-02-15 16:01:00,44.0,44.0,30.39,NNE,23,0.0,0.0,100,0.00,,,0.02,,2013-02-16 00:01:00,
2013-02-15 16:21:00,43.0,43.0,30.38,NE,45,0.0,0.0,100,0.00,,,0.02,,2013-02-16 00:21:00,
2013-02-15 16:31:00,43.0,43.0,30.37,NNE,23,0.0,0.0,100,0.00,,,0.02,,2013-02-16 00:31:00,
2013-02-15 16:41:00,43.0,43.0,30.37,NNE,23,0.0,0.0,100,0.00,,,0.02,,2013-02-16 00:41:00,
2013-02-15 16:51:00,42.0,42.0,30.37,NNE,23,0.0,0.0,100,0.00,,,0.02,,2013-02-16 00:51:00,
2013-02-15 17:02:00,42.0,42.0,30.36,NNE,23,0.0,0.0,100,0.00,,,0.02,,2013-02-16 01:02:00,
2013-02-15 17:21:00,42.0,42.0,30.36,NNE,23,0.0,0.0,100,0.00,,,0.02,,2013-02-16 01:21:00,
2013-02-15 17:31:00,40.0,40.0,30.35,NNE,23,0.0,0.0,100,0.00,,,0.02,,2013-02-16 01:31:00,
2013-02-15 17:41:00,40.0,40.0,30.35,NNE,23,0.0,0.0,100,0.00,,,0.02,,2013-02-16 01:41:00,
2013-02-15 17:51:00,39.0,39.0,30.35,NNE,23,0.0,0.0,100,0.00,,,0.02,,2013-02-16 01:51:00,
2013-02-15 18:01:00,40.0,40.0,30.35,NNE,23,0.0,0.0,100,0.00,,,0.02,,2013-02-16 02:01:00,
2013-02-15 18:11:00,39.0,39.0,30.35,NNE,23,0.0,0.0,100,0.00,,,0.02,,2013-02-16 02:11:00,
2013-02-15 18:21:00,39.0,39.0,30.35,NNE,23,0.0,0.0,100,0.00,,,0.02,,2013-02-16 02:21:00,
2013-02-15 18:31:00,37.0,37.0,30.34,NNE,23,0.0,0.0,100,0.00,,,0.02,,2013-02-16 02:31:00,
2013-02-15 18:42:00,37.0,37.0,30.34,NNE,23,0.0,0.0,100,0.00,,,0.02,,2013-02-16 02:42:00,
2013-02-15 18:51:00,38.0,38.0,30.33,NNE,23,0.0,0.0,100,0.00,,,0.02,,2013-02-16 02:51:00,
2013-02-15 19:01:00,38.0,38.0,30.33,NNE,23,0.0,0.0,100,0.00,,,0.02,,2013-02-16 03:01:00,
2013-02-15 19:11:00,37.0,37.0,30.32,NNE,23,0.0,0.0,100,0.00,,,0.02,,2013-02-16 03:11:00,
2013-02-15 19:21:00,37.0,37.0,30.32,NNE,23,0.0,0.0,100,0.00,,,0.02,,2013-02-16 03:21:00,
2013-02-15 19:31:00,37.0,37.0,30.32,NNE,23,0.0,0.0,100,0.00,,,0.02,,2013-02-16 03:31:00,
2013-02-15 19:41:00,37.0,37.0,30.32,NNE,23,0.0,0.0,100,0.00,,,0.02,,2013-02-16 03:41:00,
2013-02-15 19:52:00,35.0,35.0,30.32,NNE,23,0.0,0.0,100,0.00,,,0.02,,2013-02-16 03:52:00,
2013-02-15 20:01:00,35.0,35.0,30.31,NNE,23,0.0,0.0,100,0.00,,,0.02,,2013-02-16 04:01:00,
2013-02-15 20:11:00,35.0,35.0,30.29,NNE,23,0.0,0.0,100,0.00,,,0.02,,2013-02-16 04:11:00,
2013-02-15 20:21:00,35.0,35.0,30.29,NNE,23,0.0,0.0,100,0.00,,,0.02,,2013-02-16 04:21:00,
2013-02-15 20:31:00,35.0,35.0,30.30,NNE,23,0.0,0.0,100,0.00,,,0.02,,2013-02-16 04:31:00,
2013-02-15 20:41:00,35.0,35.0,30.30,NNE,23,0.0,0.0,100,0.00,,,0.02,,2013-02-16 04:41:00,
2013-02-15 20:51:00,34.0,34.0,30.29,NNE,23,0.0,0.0,100,0.00,,,0.02,,2013-02-16 04:51:00,
2013-02-15 21:01:00,34.0,34.0,30.29,NNE,23,0.0,0.0,100,0.00,,,0.02,,2013-02-16 05:01:00,
2013-02-15 21:11:00,34.0,34.0,30.29,NNE,23,0.0,0.0,100,0.00,,,0.02,,2013-02-16 05:11:00,
2013-02-15 21:21:00,34.0,34.0,30.29,NNE,23,0.0,0.0,100,0.00,,,0.02,,2013-02-16 05:21:00,
2013-02-15 21:31:00,34.0,34.0,30.28,NNE,23,0.0,0.0,100,0.00,,,0.02,,2013-02-16 05:31:00,
2013-02-15 21:42:00,34.0,34.0,30.28,NNE,23,0.0,0.0,100,0.00,,,0.02,,2013-02-16 05:42:00,
2013-02-15 21:52:00,33.0,33.0,30.27,NNE,23,0.0,0.0,100,0.00,,,0.02,,2013-02-16 05:52:00,
2013-02-15 22:01:00,33.0,33.0,30.27,NNE,23,0.0,0.0,100,0.00,,,0.02,,2013-02-16 06:01:00,
2013-02-15 22:11:00,33.0,33.0,30.27,NNE,23,0.0,0.0,100,0.00,,,0.02,,2013-02-16 06:11:00,
2013-02-15 22:21:00,33.0,33.0,30.26,NNE,23,0.0,0.0,100,0.00,,,0.02,,2013-02-16 06:21:00,
2013-02-15 22:32:00,32.0,32.0,30.26,NNE,23,0.0,0.0,100,0.00,,,0.02,,2013-02-16 06:32:00,
2013-02-15 22:41:00,32.0,32.0,30.26,NNE,23,0.0,0.0,100,0.00,,,0.02,,2013-02-16 06:41:00,
2013-02-15 22:51:00,33.0,33.0,30.26,NNE,23,0.0,0.0,100,0.00,,,0.02,,2013-02-16 06:51:00,
2013-02-15 23:02:00,31.0,31.0,30.27,NNE,23,0.0,0.0,100,0.00,,,0.02,,2013-02-16 07:02:00,
2013-02-15 23:11:00,31.0,31.0,30.27,NNE,23,0.0,0.0,100,0.00,,,0.02,,2013-02-16 07:11:00,
2013-02-15 23:21:00,31.0,31.0,30.26,NNE,23,0.0,0.0,100,0.00,,,0.02,,2013-02-16 07:21:00,
2013-02-15 23:31:00,32.0,32.0,30.25,ENE,68,0.0,0.0,100,0.00,,,0.02,,2013-02-16 07:31:00,
2013-02-15 23:41:00,32.0,32.0,30.25,ENE,68,0.0,0.0,100,0.00,,,0.02,,2013-02-16 07:41:00,
2013-02-15 23:52:00,31.0,31.0,30.25,ENE,68,0.0,0.0,100,0.00,,,0.02,,2013-02-16 07:52:00,